Flight Track Log - Related Links

Times and Time Zones

All times are in EDT time to prevent confusion due to time zone crossing. See the N207CM flight status page for this flight to view local times or setup timezone preferences in your user account.

Time Position Orientation Groundspeed Altitude Reporting Facility
EDT Latitude Longitude Course Direction KTS MPH feet Rate Location/Type
Fri 04:52:57 PM 34.2650 -79.7350 259° West 191 220 2,100  Level FlightAware ADS-B
Fri 04:53:17 PM 34.2620 -79.7570 261° West 190 219 2,100  Level FlightAware ADS-B
Fri 04:53:37 PM 34.2580 -79.7780 257° West 190 219 2,100  Level FlightAware ADS-B
Fri 04:53:47 PM 34.2570 -79.7850 260° West 189 217 2,100  Level FlightAware ADS-B
Fri 04:54:13 PM 34.2520 -79.8150 259° West 191 220 2,100  Level FlightAware ADS-B
Fri 04:54:33 PM 34.2490 -79.8370 261° West 191 220 2,100  Level FlightAware ADS-B
Fri 04:55:03 PM 34.2440 -79.8680 259° West 190 219 2,100  Level FlightAware ADS-B
Fri 04:55:23 PM 34.2410 -79.8890 260° West 191 220 2,100  Level FlightAware ADS-B
Fri 04:55:43 PM 34.2380 -79.9080 259° West 191 220 2,100  Level FlightAware ADS-B
Fri 04:56:13 PM 34.2320 -79.9410 258° West 199 229 2,100  Level FlightAware ADS-B
Fri 04:56:18 PM 34.2310 -79.9420 220° Southwest 199 229 2,100  Level FlightAware ADS-B
Fri 04:56:28 PM 34.2220 -79.9520 223° Southwest 197 227 2,100  Level FlightAware ADS-B
Fri 04:56:33 PM 34.2170 -79.9530 189° South 193 222 2,100  Level FlightAware ADS-B
Fri 04:56:43 PM 34.2080 -79.9530 180° South 184 212 2,100  Level FlightAware ADS-B
Fri 04:56:53 PM 34.2000 -79.9530 180° South 177 204 2,100  Level FlightAware ADS-B
Fri 04:57:13 PM 34.1860 -79.9520 177° South 171 197 2,100 -109 Level FlightAware ADS-B
Fri 04:57:48 PM 34.1620 -79.9430 163° South 135 155 2,000  Descending FlightAware ADS-B
Fri 04:57:53 PM 34.1600 -79.9390 121° Southeast 113 130 2,100 200 Climbing FlightAware ADS-B
Fri 04:58:18 PM 34.1640 -79.9220 74° East 127 146 2,100  Level FlightAware ADS-B
Fri 04:58:28 PM 34.1660 -79.9150 71° East 124 143 2,100  Level FlightAware ADS-B
Fri 04:58:48 PM 34.1690 -79.9020 74° East 129 148 2,100  Level FlightAware ADS-B
Fri 04:59:03 PM 34.1710 -79.8910 78° East 137 158 2,100  Level FlightAware ADS-B
Fri 04:59:13 PM 34.1710 -79.8840 90° East 137 158 2,100  Level FlightAware ADS-B
Fri 04:59:38 PM 34.1730 -79.8660 82° East 116 133 2,100  Level FlightAware ADS-B
Fri 04:59:48 PM 34.1730 -79.8600 90° East 119 137 2,100 -514 Level FlightAware ADS-B
Fri 05:00:13 PM 34.1750 -79.8430 82° East 117 135 1,800 -667 Descending FlightAware ADS-B
Fri 05:00:33 PM 34.1760 -79.8300 85° East 115 132 1,600 -686 Descending FlightAware ADS-B
Fri 05:00:48 PM 34.1770 -79.8200 83° East 128 147 1,400 -667 Descending FlightAware ADS-B
Fri 05:01:18 PM 34.1790 -79.7990 83° East 119 137 1,100 -600 Descending FlightAware ADS-B
Fri 05:01:38 PM 34.1800 -79.7860 85° East 117 135 900 -600 Descending FlightAware ADS-B
Fri 05:01:48 PM 34.1810 -79.7800 79° East 113 130 800 -615 Descending FlightAware ADS-B
Fri 05:02:17 PM 34.1830 -79.7620 82° East 114 131 500 -556 Descending FlightAware ADS-B
Fri 05:02:42 PM 34.1840 -79.7450 86° East 117 135 300 -290 Descending FlightAware ADS-B
Fri 05:03:19 PM 34.1860 -79.7280 82° East 106 122 200 91 Descending FlightAware ADS-B
Fri 05:05:00 PM 34.2810 -79.7820 335° Northwest  Level FlightAware Approximate
Fri 05:06:00 PM 34.3314 -79.8265 331° Northwest  Level FlightAware Approximate
Fri 05:07:00 PM 34.3806 -79.8708 309° West  Level FlightAware Approximate
Fri 05:08:00 PM 34.4198 -79.9296 309° West  Level FlightAware Approximate
Fri 05:09:00 PM 34.4590 -79.9884 309° West  Level FlightAware Approximate
Fri 05:10:00 PM 34.4988 -80.0466 310° West  Level FlightAware Approximate
Fri 05:11:00 PM 34.5388 -80.1047 310° West  Level FlightAware Approximate
Fri 05:11:32 PM 34.1880 -79.6980 310° West 150 173 1,100  Level FlightAware ADS-B
Fri 05:11:52 PM 34.1890 -79.6800 86° East 171 197 1,500 2,000 Climbing FlightAware ADS-B
Fri 05:12:17 PM 34.1930 -79.6580 78° East 147 169 2,600 2,400 Climbing FlightAware ADS-B
Fri 05:12:22 PM 34.1950 -79.6550 51° Northeast 149 171 2,700 1,000 Climbing FlightAware ADS-B
Fri 05:12:29 PM 34.1980 -79.6520 40° Northeast 152 175 2,800 1,600 Climbing FlightAware ADS-B
Fri 05:12:37 PM 34.2040 -79.6490 22° Northeast 158 182 3,100 1,929 Climbing FlightAware ADS-B
Fri 05:12:57 PM 34.2200 -79.6550 343° North 171 197 3,700 1,543 Climbing FlightAware ADS-B
Fri 05:13:12 PM 34.2270 -79.6650 310° West 177 204 4,000 1,333 Climbing FlightAware ADS-B
Fri 05:13:33 PM 34.2390 -79.6800 314° West 184 212 4,500 1,543 Climbing FlightAware ADS-B
Fri 05:13:47 PM 34.2490 -79.6920 315° West 195 224 4,900 1,235 Climbing FlightAware ADS-B
Fri 05:14:07 PM 34.2610 -79.7080 312° West 204 235 5,200 1,200 Climbing FlightAware ADS-B
Fri 05:14:27 PM 34.2740 -79.7260 311° West 206 237 5,700 1,371 Climbing FlightAware ADS-B
Fri 05:14:42 PM 34.2820 -79.7370 311° West 208 239 6,000 1,029 Climbing FlightAware ADS-B
Fri 05:15:02 PM 34.2950 -79.7550 311° West 214 246 6,300 1,050 Climbing FlightAware ADS-B
Fri 05:15:22 PM 34.3090 -79.7740 312° West 214 246 6,700 960 Climbing FlightAware ADS-B
Fri 05:15:52 PM 34.3270 -79.8000 310° West 216 249 7,100 840 Climbing FlightAware ADS-B
Fri 05:16:12 PM 34.3410 -79.8190 312° West 218 251 7,400 649 Climbing FlightAware ADS-B
Fri 05:16:29 PM 34.3510 -79.8330 311° West 221 254 7,500 533 Climbing FlightAware ADS-B
Fri 05:16:57 PM 34.3710 -79.8610 311° West 228 262 7,800 500 Climbing FlightAware ADS-B
Fri 05:17:17 PM 34.3860 -79.8820 311° West 232 267 7,900 200 Climbing FlightAware ADS-B
Fri 05:17:27 PM 34.3930 -79.8920 310° West 236 272 7,900  Level FlightAware ADS-B
Fri 05:17:47 PM 34.4070 -79.9150 306° West 241 277 7,900  Level FlightAware ADS-B
Fri 05:18:16 PM 34.4250 -79.9420 309° West 237 273 7,900  Level FlightAware ADS-B
Fri 05:18:36 PM 34.4390 -79.9620 310° West 219 252 7,900  Level FlightAware ADS-B
Fri 05:18:51 PM 34.4490 -79.9760 311° West 206 237 7,900  Level FlightAware ADS-B
Fri 05:19:16 PM 34.4640 -79.9990 308° West 194 223 7,900  Level FlightAware ADS-B
Fri 05:19:36 PM 34.4760 -80.0170 309° West 189 217 7,900  Level FlightAware ADS-B
Fri 05:19:51 PM 34.4820 -80.0270 306° West 194 223 7,900  Level FlightAware ADS-B
Fri 05:20:11 PM 34.4970 -80.0460 314° West 202 232 7,900  Level FlightAware ADS-B
Fri 05:20:31 PM 34.5080 -80.0630 308° West 216 249 7,900  Level FlightAware ADS-B
Fri 05:20:51 PM 34.5200 -80.0800 311° West 225 259 7,900  Level FlightAware ADS-B
Fri 05:21:16 PM 34.5390 -80.1090 309° West 233 268 7,900  Level FlightAware ADS-B
Fri 05:21:36 PM 34.5500 -80.1250 310° West 235 270 7,900  Level FlightAware ADS-B
Fri 05:21:51 PM 34.5630 -80.1440 310° West 238 274 7,900  Level FlightAware ADS-B
Fri 05:22:11 PM 34.5770 -80.1650 309° West 239 275 7,900  Level FlightAware ADS-B
Fri 05:22:36 PM 34.5920 -80.1880 308° West 240 276 7,900  Level FlightAware ADS-B
Fri 05:23:16 PM 34.6180 -80.2270 309° West 241 277 7,900  Level FlightAware ADS-B
Fri 05:23:31 PM 34.6320 -80.2480 309° West 240 276 7,900  Level FlightAware ADS-B
Fri 05:23:57 PM 34.6480 -80.2720 309° West 240 276 7,900  Level FlightAware ADS-B
Fri 05:24:16 PM 34.6620 -80.2890 315° West 198 228 7,900  Level FlightAware ADS-B
Fri 05:24:21 PM 34.6650 -80.2900 345° North 194 223 7,900  Level FlightAware ADS-B
Fri 05:24:48 PM 34.6840 -80.2980 341° North 194 223 7,900  Level FlightAware ADS-B
Fri 05:25:46 PM 34.6760 -80.2240 97° East 177 204 7,900  Level FlightAware ADS-B
Fri 05:26:11 PM 34.6710 -80.2030 106° East 177 204 7,900  Level FlightAware ADS-B
Fri 05:26:26 PM 34.6760 -80.2240 286° West 179 206 7,900  Level FlightAware ADS-B
Fri 05:26:53 PM 34.6660 -80.2040 121° Southeast 179 206 7,900  Level FlightAware ADS-B
Fri 05:27:21 PM 34.6290 -80.1870 159° South 193 222 7,900  Level FlightAware ADS-B
Fri 05:27:41 PM 34.6220 -80.2080 248° West 193 222 7,900  Level FlightAware ADS-B
Fri 05:28:06 PM 34.6170 -80.2290 254° West 193 222 7,900  Level FlightAware ADS-B
Fri 05:28:11 PM 34.6220 -80.2080 74° East 187 215 7,900  Level FlightAware ADS-B
Fri 05:28:36 PM 34.6390 -80.2590 292° West 180 207 7,900  Level FlightAware ADS-B
Fri 05:28:56 PM 34.6510 -80.2770 309° West 180 207 7,900  Level FlightAware ADS-B
Fri 05:29:11 PM 34.6590 -80.2890 309° West 178 205 7,900  Level FlightAware ADS-B
Fri 05:29:36 PM 34.6750 -80.3060 319° Northwest 208 239 7,900 364 Level FlightAware ADS-B
Fri 05:29:44 PM 34.6792 -80.3156 314° West 193 222 8,100  Climbing Atlanta Center
Fri 05:29:56 PM 34.6900 -80.3240 315° West 219 252 7,900 -245 Descending FlightAware ADS-B
Fri 05:30:33 PM 34.7100 -80.3480 315° West 220 253 7,900 250 Level FlightAware ADS-B
Fri 05:30:44 PM 34.7225 -80.3694 314° West 234 269 8,100 -318 Climbing Atlanta Center
Fri 05:31:51 PM 34.6920 -80.3260 135° Southeast 7,900 -358 Descending FlightAware ADS-B
Fri 05:34:00 PM 34.7812 -80.4380 314° West  Level FlightAware Approximate
Fri 05:35:00 PM 34.8227 -80.4902 314° West  Level FlightAware Approximate
Fri 05:37:09 PM 34.9000 -80.8190 314° West 230 265 5,800  Level FlightAware ADS-B
Fri 05:37:21 PM 34.9040 -80.8340 288° West 230 265 5,800  Level FlightAware ADS-B
Fri 05:37:26 PM 34.9060 -80.8400 292° West 231 266 5,800 -750 Level FlightAware ADS-B
Fri 05:37:37 PM 34.9110 -80.8550 292° West 235 270 5,600 -1,043 Descending FlightAware ADS-B
Fri 05:37:49 PM 34.9150 -80.8700 288° West 239 275 5,400 -1,000 Descending FlightAware ADS-B
Fri 05:38:01 PM 34.9190 -80.8820 292° West 242 278 5,200 -308 Descending FlightAware ADS-B
Fri 05:38:28 PM 34.9270 -80.9110 289° West 242 278 5,200 -1,143 Level FlightAware ADS-B
Fri 05:39:04 PM 34.9190 -80.8820 109° East 231 266 4,000 -1,698 Descending FlightAware ADS-B
Fri 05:39:21 PM 34.9940 -80.9160 340° North 232 267 3,700 -1,304 Descending FlightAware ADS-B
Fri 05:39:27 PM 35.0030 -80.9170 355° North 232 267 3,500 -1,286 Descending FlightAware ADS-B
Fri 05:39:35 PM 35.0100 -80.9180 353° North 233 268 3,400 -1,333 Descending FlightAware ADS-B
Fri 05:39:45 PM 35.0230 -80.9190 356° North 233 268 3,100 -1,364 Descending FlightAware ADS-B
Fri 05:39:57 PM 35.0330 -80.9200 355° North 233 268 2,900 -750 Descending FlightAware ADS-B
Fri 05:40:09 PM 35.0490 -80.9210 357° North 226 260 2,800 -333 Descending FlightAware ADS-B
Fri 05:40:15 PM 35.0540 -80.9220 351° North 223 257 2,800  Level FlightAware ADS-B
Fri 05:40:21 PM 35.0610 -80.9220 360° North 223 257 2,800  Level FlightAware ADS-B
Fri 05:40:27 PM 35.0660 -80.9230 351° North 217 250 2,800  Level FlightAware ADS-B
Fri 05:40:35 PM 35.0730 -80.9230 360° North 211 243 2,800  Level FlightAware ADS-B
Fri 05:40:45 PM 35.0840 -80.9240 356° North 192 221 2,800 -273 Level FlightAware ADS-B
Fri 05:40:57 PM 35.0930 -80.9250 355° North 179 206 2,700 -632 Descending FlightAware ADS-B
Fri 05:41:04 PM 35.0990 -80.9250 360° North 178 205 2,600 -667 Descending FlightAware ADS-B
Fri 05:41:15 PM 35.1060 -80.9260 353° North 177 204 2,500 -857 Descending FlightAware ADS-B
Fri 05:41:39 PM 35.1270 -80.9280 356° North 178 205 2,100 -833 Descending FlightAware ADS-B
Fri 05:41:51 PM 35.1340 -80.9280 360° North 180 207 2,000 -154 Descending FlightAware ADS-B
Fri 05:42:18 PM 35.1530 -80.9300 355° North 180 207 2,000  Level FlightAware ADS-B
Fri 05:50:00 PM 35.2000 -80.9333 321° Northwest  Level FlightAware Approximate
Fri 05:51:00 PM 35.2137 -80.9491 321° Northwest  Level Estimated

Login

Don't have an account? Register now (free) for customized features, flight alerts, and more!